Etusivu
METAR-TAF:

METAR-TAF

Lentoasemat :

Altus, Oklahoma, Yhdysvallat

Leveyspiiri: 34-41-55N, Pituuspiiri: 099-20-17W, korkeus merenpinnasta: 437 m

Tämänhetkinen sää

Tämä raportti tehtiin 17 minuuttia sitten, kello 13.15 UTC
Tuuli 10 kn etelästä/kaakosta
Lämpötila 23°C
Kosteus 83%
Ilmanpaine 1016 hPa
Näkyvyys: 4.8 km
selkeää
usvaa

METAR: KAXS 251315Z AUTO 15010KT 3SM HZ CLR 23/20 A2999 RMK AO2 T02280195

Aika: 08:32 (13:32 UTC)


TAF: puuttuu

Säähavainnot ja -ennusteet yli 4000 lentoasemalta (METAR- ja TAF-raportit).

Käytössä olevat sääasemat on merkitty karttaan keltaisilla ja punaisilla pisteillä.

Aseta hiiri pisteen päälle nähdäksesi sääaseman nimen.

Klikkaa sitten nähdäksesi säähavainnot ja -ennusteet.

Kartan vaihtaminen: klikkaa mustalla rastilla varustettuja vihreitä pisteitä, niin voit zoomata sisään; viivalla varustettua vihreää pistettä, niin voit zoomata ulos tai vihreitä nuolia, niin pääset viereisille kartoille.


METAR-TAF: